sensor_id;sensor_type;location;lat;lon;timestamp;temperature;humidity
21189;DHT22;39071;52.420;20.896;2022-11-18T00:01:48;1.40;99.90
21189;DHT22;39071;52.420;20.896;2022-11-18T00:04:14;1.40;99.90
21189;DHT22;39071;52.420;20.896;2022-11-18T00:06:39;1.40;99.90
21189;DHT22;39071;52.420;20.896;2022-11-18T00:09:05;1.50;99.90
21189;DHT22;39071;52.420;20.896;2022-11-18T00:11:31;1.90;99.90
21189;DHT22;39071;52.420;20.896;2022-11-18T00:14:18;1.40;99.90
21189;DHT22;39071;52.420;20.896;2022-11-18T00:19:19;1.30;99.90
21189;DHT22;39071;52.420;20.896;2022-11-18T00:21:45;1.40;99.90
21189;DHT22;39071;52.420;20.896;2022-11-18T00:24:11;1.40;99.90
21189;DHT22;39071;52.420;20.896;2022-11-18T00:26:36;1.40;99.90
21189;DHT22;39071;52.420;20.896;2022-11-18T00:29:02;1.30;99.90
21189;DHT22;39071;52.420;20.896;2022-11-18T00:31:28;1.20;99.90
21189;DHT22;39071;52.420;20.896;2022-11-18T00:33:54;1.00;99.90
21189;DHT22;39071;52.420;20.896;2022-11-18T00:36:20;1.00;99.90
21189;DHT22;39071;52.420;20.896;2022-11-18T00:38:46;0.90;99.90
21189;DHT22;39071;52.420;20.896;2022-11-18T00:41:13;1.20;99.90
21189;DHT22;39071;52.420;20.896;2022-11-18T00:43:40;0.80;99.90
21189;DHT22;39071;52.420;20.896;2022-11-18T00:46:08;0.80;99.90
21189;DHT22;39071;52.420;20.896;2022-11-18T00:48:35;0.70;99.90
21189;DHT22;39071;52.420;20.896;2022-11-18T00:51:13;0.80;99.90
21189;DHT22;39071;52.420;20.896;2022-11-18T00:53:39;0.90;99.90
21189;DHT22;39071;52.420;20.896;2022-11-18T00:56:06;1.00;99.90
21189;DHT22;39071;52.420;20.896;2022-11-18T00:58:32;1.00;99.90
21189;DHT22;39071;52.420;20.896;2022-11-18T01:00:58;1.10;99.90
21189;DHT22;39071;52.420;20.896;2022-11-18T01:03:24;1.20;99.90
21189;DHT22;39071;52.420;20.896;2022-11-18T01:05:50;1.20;99.90
21189;DHT22;39071;52.420;20.896;2022-11-18T01:08:16;1.20;99.90
21189;DHT22;39071;52.420;20.896;2022-11-18T01:10:44;1.40;99.90
21189;DHT22;39071;52.420;20.896;2022-11-18T01:13:12;1.10;99.90
21189;DHT22;39071;52.420;20.896;2022-11-18T01:15:59;1.10;99.90
21189;DHT22;39071;52.420;20.896;2022-11-18T01:18:26;1.10;99.90
21189;DHT22;39071;52.420;20.896;2022-11-18T01:20:53;1.20;99.90
21189;DHT22;39071;52.420;20.896;2022-11-18T01:23:19;1.30;99.90
21189;DHT22;39071;52.420;20.896;2022-11-18T01:25:47;1.40;99.90
21189;DHT22;39071;52.420;20.896;2022-11-18T01:28:16;1.50;99.90
21189;DHT22;39071;52.420;20.896;2022-11-18T01:30:42;1.50;99.90
21189;DHT22;39071;52.420;20.896;2022-11-18T01:33:08;1.40;99.90
21189;DHT22;39071;52.420;20.896;2022-11-18T01:35:38;1.50;99.90
21189;DHT22;39071;52.420;20.896;2022-11-18T01:38:05;1.50;99.90
21189;DHT22;39071;52.420;20.896;2022-11-18T01:40:32;1.60;99.90
21189;DHT22;39071;52.420;20.896;2022-11-18T01:42:58;1.60;99.90
21189;DHT22;39071;52.420;20.896;2022-11-18T01:45:36;1.70;99.90
21189;DHT22;39071;52.420;20.896;2022-11-18T01:50:57;1.80;99.90
21189;DHT22;39071;52.420;20.896;2022-11-18T01:53:28;1.70;99.90
21189;DHT22;39071;52.420;20.896;2022-11-18T01:55:58;1.70;99.90
21189;DHT22;39071;52.420;20.896;2022-11-18T01:58:36;1.60;99.90
21189;DHT22;39071;52.420;20.896;2022-11-18T02:01:04;1.60;99.90
21189;DHT22;39071;52.420;20.896;2022-11-18T02:03:32;1.50;99.90
21189;DHT22;39071;52.420;20.896;2022-11-18T02:05:59;1.60;99.90
21189;DHT22;39071;52.420;20.896;2022-11-18T02:08:27;1.60;99.90
21189;DHT22;39071;52.420;20.896;2022-11-18T02:10:53;1.50;99.90
21189;DHT22;39071;52.420;20.896;2022-11-18T02:13:19;1.50;99.90
21189;DHT22;39071;52.420;20.896;2022-11-18T02:19:01;1.40;99.90
21189;DHT22;39071;52.420;20.896;2022-11-18T02:25:04;1.40;99.90
21189;DHT22;39071;52.420;20.896;2022-11-18T02:27:33;1.40;99.90
21189;DHT22;39071;52.420;20.896;2022-11-18T02:30:09;1.40;99.90
21189;DHT22;39071;52.420;20.896;2022-11-18T02:35:30;0.90;99.90
21189;DHT22;39071;52.420;20.896;2022-11-18T02:40:38;0.70;99.90
21189;DHT22;39071;52.420;20.896;2022-11-18T02:43:19;0.70;99.90
21189;DHT22;39071;52.420;20.896;2022-11-18T02:45:50;0.50;99.90
21189;DHT22;39071;52.420;20.896;2022-11-18T02:48:17;0.30;99.90
21189;DHT22;39071;52.420;20.896;2022-11-18T02:50:45;0.20;99.90
21189;DHT22;39071;52.420;20.896;2022-11-18T02:53:16;0.30;99.90
21189;DHT22;39071;52.420;20.896;2022-11-18T02:55:43;0.20;99.90
21189;DHT22;39071;52.420;20.896;2022-11-18T02:58:11;0.20;99.90
21189;DHT22;39071;52.420;20.896;2022-11-18T03:00:38;0.20;99.90
21189;DHT22;39071;52.420;20.896;2022-11-18T03:03:27;0.20;99.90
21189;DHT22;39071;52.420;20.896;2022-11-18T03:08:24;0.20;99.90
21189;DHT22;39071;52.420;20.896;2022-11-18T03:11:05;0.30;99.90
21189;DHT22;39071;52.420;20.896;2022-11-18T03:13:41;0.40;99.90
21189;DHT22;39071;52.420;20.896;2022-11-18T03:16:17;0.30;99.90
21189;DHT22;39071;52.420;20.896;2022-11-18T03:19:19;0.30;99.90
21189;DHT22;39071;52.420;20.896;2022-11-18T03:24:33;0.20;99.90
21189;DHT22;39071;52.420;20.896;2022-11-18T03:27:06;0.30;99.90
21189;DHT22;39071;52.420;20.896;2022-11-18T03:29:40;0.20;99.90
21189;DHT22;39071;52.420;20.896;2022-11-18T03:32:19;0.30;99.90
21189;DHT22;39071;52.420;20.896;2022-11-18T03:34:49;0.40;99.90
21189;DHT22;39071;52.420;20.896;2022-11-18T03:37:18;0.40;99.90
21189;DHT22;39071;52.420;20.896;2022-11-18T03:39:52;0.40;99.90
21189;DHT22;39071;52.420;20.896;2022-11-18T03:42:27;0.20;99.90
21189;DHT22;39071;52.420;20.896;2022-11-18T03:45:00;0.20;99.90
21189;DHT22;39071;52.420;20.896;2022-11-18T03:47:33;0.10;99.90
21189;DHT22;39071;52.420;20.896;2022-11-18T03:50:16;0.20;99.90
21189;DHT22;39071;52.420;20.896;2022-11-18T03:52:44;0.20;99.90
21189;DHT22;39071;52.420;20.896;2022-11-18T03:55:18;0.40;99.90
21189;DHT22;39071;52.420;20.896;2022-11-18T03:57:48;0.40;99.90
21189;DHT22;39071;52.420;20.896;2022-11-18T04:00:15;0.50;99.90
21189;DHT22;39071;52.420;20.896;2022-11-18T04:02:43;0.50;99.90
21189;DHT22;39071;52.420;20.896;2022-11-18T04:05:12;0.50;99.90
21189;DHT22;39071;52.420;20.896;2022-11-18T04:07:56;0.50;99.90
21189;DHT22;39071;52.420;20.896;2022-11-18T04:13:04;0.50;99.90
21189;DHT22;39071;52.420;20.896;2022-11-18T04:15:31;0.40;99.90
21189;DHT22;39071;52.420;20.896;2022-11-18T04:17:57;0.30;99.90
21189;DHT22;39071;52.420;20.896;2022-11-18T04:20:24;0.20;99.90
21189;DHT22;39071;52.420;20.896;2022-11-18T04:22:50;0.30;99.90
21189;DHT22;39071;52.420;20.896;2022-11-18T04:25:15;0.30;99.90
21189;DHT22;39071;52.420;20.896;2022-11-18T04:27:41;0.40;99.90
21189;DHT22;39071;52.420;20.896;2022-11-18T04:30:07;0.40;99.90
21189;DHT22;39071;52.420;20.896;2022-11-18T04:32:33;0.40;99.90
21189;DHT22;39071;52.420;20.896;2022-11-18T04:34:59;0.40;99.90
21189;DHT22;39071;52.420;20.896;2022-11-18T04:37:25;0.20;99.90
21189;DHT22;39071;52.420;20.896;2022-11-18T04:39:51;0.30;99.90
21189;DHT22;39071;52.420;20.896;2022-11-18T04:42:17;0.30;99.90
21189;DHT22;39071;52.420;20.896;2022-11-18T04:44:42;0.20;99.90
21189;DHT22;39071;52.420;20.896;2022-11-18T04:47:09;0.20;99.90
21189;DHT22;39071;52.420;20.896;2022-11-18T04:49:35;0.30;99.90
21189;DHT22;39071;52.420;20.896;2022-11-18T04:52:01;0.20;99.90
21189;DHT22;39071;52.420;20.896;2022-11-18T04:54:27;0.30;99.90
21189;DHT22;39071;52.420;20.896;2022-11-18T04:56:53;0.20;99.90
21189;DHT22;39071;52.420;20.896;2022-11-18T04:59:22;0.20;99.90
21189;DHT22;39071;52.420;20.896;2022-11-18T05:01:49;0.30;99.90
21189;DHT22;39071;52.420;20.896;2022-11-18T05:04:21;0.20;99.90
21189;DHT22;39071;52.420;20.896;2022-11-18T05:06:47;0.20;99.90
21189;DHT22;39071;52.420;20.896;2022-11-18T05:09:12;0.20;99.90
21189;DHT22;39071;52.420;20.896;2022-11-18T05:11:38;0.30;99.90
21189;DHT22;39071;52.420;20.896;2022-11-18T05:14:28;0.30;99.90
21189;DHT22;39071;52.420;20.896;2022-11-18T05:16:54;0.40;99.90
21189;DHT22;39071;52.420;20.896;2022-11-18T05:19:20;0.40;99.90
21189;DHT22;39071;52.420;20.896;2022-11-18T05:21:46;0.40;99.90
21189;DHT22;39071;52.420;20.896;2022-11-18T05:24:11;0.30;99.90
21189;DHT22;39071;52.420;20.896;2022-11-18T05:26:37;0.30;99.90
21189;DHT22;39071;52.420;20.896;2022-11-18T05:29:03;0.40;99.90
21189;DHT22;39071;52.420;20.896;2022-11-18T05:31:29;0.30;99.90
21189;DHT22;39071;52.420;20.896;2022-11-18T05:33:54;0.30;99.90
21189;DHT22;39071;52.420;20.896;2022-11-18T05:36:21;0.40;99.90
21189;DHT22;39071;52.420;20.896;2022-11-18T05:38:47;0.30;99.90
21189;DHT22;39071;52.420;20.896;2022-11-18T05:41:13;0.40;99.90
21189;DHT22;39071;52.420;20.896;2022-11-18T05:43:58;0.30;99.90
21189;DHT22;39071;52.420;20.896;2022-11-18T05:46:24;0.40;99.90
21189;DHT22;39071;52.420;20.896;2022-11-18T05:48:49;0.40;99.90
21189;DHT22;39071;52.420;20.896;2022-11-18T05:51:15;0.60;99.90
21189;DHT22;39071;52.420;20.896;2022-11-18T05:53:41;0.50;99.90
21189;DHT22;39071;52.420;20.896;2022-11-18T05:56:29;0.40;99.90
21189;DHT22;39071;52.420;20.896;2022-11-18T05:58:57;0.50;99.90
21189;DHT22;39071;52.420;20.896;2022-11-18T06:01:31;0.50;99.90
21189;DHT22;39071;52.420;20.896;2022-11-18T06:03:58;0.80;99.90
21189;DHT22;39071;52.420;20.896;2022-11-18T06:06:26;0.50;99.90
21189;DHT22;39071;52.420;20.896;2022-11-18T06:08:59;0.30;99.90
21189;DHT22;39071;52.420;20.896;2022-11-18T06:11:26;0.40;99.90
21189;DHT22;39071;52.420;20.896;2022-11-18T06:14:15;0.40;99.90
21189;DHT22;39071;52.420;20.896;2022-11-18T06:16:47;0.40;99.90
21189;DHT22;39071;52.420;20.896;2022-11-18T06:19:15;0.50;99.90
21189;DHT22;39071;52.420;20.896;2022-11-18T06:21:42;0.20;99.90
21189;DHT22;39071;52.420;20.896;2022-11-18T06:24:07;0.10;99.90
21189;DHT22;39071;52.420;20.896;2022-11-18T06:26:35;0.10;99.90
21189;DHT22;39071;52.420;20.896;2022-11-18T06:29:02;0.20;99.90
21189;DHT22;39071;52.420;20.896;2022-11-18T06:31:28;0.00;99.90
21189;DHT22;39071;52.420;20.896;2022-11-18T06:33:53;0.30;99.90
21189;DHT22;39071;52.420;20.896;2022-11-18T06:36:19;0.10;99.90
21189;DHT22;39071;52.420;20.896;2022-11-18T06:38:45;0.10;99.90
21189;DHT22;39071;52.420;20.896;2022-11-18T06:41:10;0.20;99.90
21189;DHT22;39071;52.420;20.896;2022-11-18T06:43:36;0.30;99.90
21189;DHT22;39071;52.420;20.896;2022-11-18T06:46:11;0.40;99.90
21189;DHT22;39071;52.420;20.896;2022-11-18T06:48:56;0.30;99.90
21189;DHT22;39071;52.420;20.896;2022-11-18T06:51:23;0.20;99.90
21189;DHT22;39071;52.420;20.896;2022-11-18T06:53:50;0.20;99.90
21189;DHT22;39071;52.420;20.896;2022-11-18T06:56:17;0.30;99.90
21189;DHT22;39071;52.420;20.896;2022-11-18T06:58:43;0.40;99.90
21189;DHT22;39071;52.420;20.896;2022-11-18T07:01:13;0.40;99.90
21189;DHT22;39071;52.420;20.896;2022-11-18T07:03:40;0.30;99.90
21189;DHT22;39071;52.420;20.896;2022-11-18T07:06:06;0.20;99.90
21189;DHT22;39071;52.420;20.896;2022-11-18T07:08:34;0.30;99.90
21189;DHT22;39071;52.420;20.896;2022-11-18T07:11:02;0.90;99.90
21189;DHT22;39071;52.420;20.896;2022-11-18T07:13:30;0.10;99.90
21189;DHT22;39071;52.420;20.896;2022-11-18T07:16:04;0.10;99.90
21189;DHT22;39071;52.420;20.896;2022-11-18T07:18:34;0.10;99.90
21189;DHT22;39071;52.420;20.896;2022-11-18T07:21:01;0.10;99.90
21189;DHT22;39071;52.420;20.896;2022-11-18T07:23:28;0.10;99.90
21189;DHT22;39071;52.420;20.896;2022-11-18T07:25:54;0.60;99.90
21189;DHT22;39071;52.420;20.896;2022-11-18T07:28:20;0.20;99.90
21189;DHT22;39071;52.420;20.896;2022-11-18T07:30:46;0.20;99.90
21189;DHT22;39071;52.420;20.896;2022-11-18T07:33:11;0.30;99.90
21189;DHT22;39071;52.420;20.896;2022-11-18T07:35:37;0.30;99.90
21189;DHT22;39071;52.420;20.896;2022-11-18T07:38:03;0.40;99.90
21189;DHT22;39071;52.420;20.896;2022-11-18T07:40:28;0.50;99.90
21189;DHT22;39071;52.420;20.896;2022-11-18T07:42:54;0.50;99.90
21189;DHT22;39071;52.420;20.896;2022-11-18T07:45:19;0.60;99.90
21189;DHT22;39071;52.420;20.896;2022-11-18T07:47:45;0.50;99.90
21189;DHT22;39071;52.420;20.896;2022-11-18T07:50:11;0.50;99.90
21189;DHT22;39071;52.420;20.896;2022-11-18T07:52:36;0.50;99.90
21189;DHT22;39071;52.420;20.896;2022-11-18T07:55:02;0.40;99.90
21189;DHT22;39071;52.420;20.896;2022-11-18T07:57:28;0.60;99.90
21189;DHT22;39071;52.420;20.896;2022-11-18T07:59:53;0.70;99.90
21189;DHT22;39071;52.420;20.896;2022-11-18T08:02:19;1.00;99.90
21189;DHT22;39071;52.420;20.896;2022-11-18T08:04:45;1.60;99.90
21189;DHT22;39071;52.420;20.896;2022-11-18T08:07:10;2.10;99.90
21189;DHT22;39071;52.420;20.896;2022-11-18T08:09:36;2.60;99.90
21189;DHT22;39071;52.420;20.896;2022-11-18T08:12:02;2.90;99.90
21189;DHT22;39071;52.420;20.896;2022-11-18T08:14:27;3.00;99.90
21189;DHT22;39071;52.420;20.896;2022-11-18T08:16:54;2.80;99.90
21189;DHT22;39071;52.420;20.896;2022-11-18T08:19:19;3.00;99.90
21189;DHT22;39071;52.420;20.896;2022-11-18T08:21:45;3.10;99.90
21189;DHT22;39071;52.420;20.896;2022-11-18T08:24:11;3.40;99.90
21189;DHT22;39071;52.420;20.896;2022-11-18T08:26:36;4.00;99.90
21189;DHT22;39071;52.420;20.896;2022-11-18T08:29:02;4.10;91.70
21189;DHT22;39071;52.420;20.896;2022-11-18T08:31:29;3.90;70.70
21189;DHT22;39071;52.420;20.896;2022-11-18T08:34:05;6.20;63.30
21189;DHT22;39071;52.420;20.896;2022-11-18T08:36:33;4.30;52.30
21189;DHT22;39071;52.420;20.896;2022-11-18T08:39:00;3.40;35.30
21189;DHT22;39071;52.420;20.896;2022-11-18T08:41:59;3.30;44.30
21189;DHT22;39071;52.420;20.896;2022-11-18T08:44:18;2.70;47.50
21189;DHT22;39071;52.420;20.896;2022-11-18T08:46:44;2.20;58.40
21189;DHT22;39071;52.420;20.896;2022-11-18T08:49:10;2.10;70.00
21189;DHT22;39071;52.420;20.896;2022-11-18T08:51:36;1.80;79.40
21189;DHT22;39071;52.420;20.896;2022-11-18T08:54:01;1.60;88.90
21189;DHT22;39071;52.420;20.896;2022-11-18T08:56:27;1.60;96.50
21189;DHT22;39071;52.420;20.896;2022-11-18T08:58:53;1.80;98.70
21189;DHT22;39071;52.420;20.896;2022-11-18T09:01:19;1.30;99.90
21189;DHT22;39071;52.420;20.896;2022-11-18T09:03:44;1.40;99.90
21189;DHT22;39071;52.420;20.896;2022-11-18T09:06:12;1.20;99.90
21189;DHT22;39071;52.420;20.896;2022-11-18T09:08:38;1.40;99.90
21189;DHT22;39071;52.420;20.896;2022-11-18T09:11:07;1.40;99.90
21189;DHT22;39071;52.420;20.896;2022-11-18T09:13:32;1.60;99.90
21189;DHT22;39071;52.420;20.896;2022-11-18T09:15:58;1.70;99.90
21189;DHT22;39071;52.420;20.896;2022-11-18T09:18:24;1.80;99.90
21189;DHT22;39071;52.420;20.896;2022-11-18T09:21:07;1.80;99.90
21189;DHT22;39071;52.420;20.896;2022-11-18T09:23:34;1.70;99.90
21189;DHT22;39071;52.420;20.896;2022-11-18T09:26:06;1.50;99.40
21189;DHT22;39071;52.420;20.896;2022-11-18T09:28:32;1.50;98.70
21189;DHT22;39071;52.420;20.896;2022-11-18T09:30:59;1.40;97.00
21189;DHT22;39071;52.420;20.896;2022-11-18T09:33:27;1.30;97.70
21189;DHT22;39071;52.420;20.896;2022-11-18T09:35:52;1.30;99.90
21189;DHT22;39071;52.420;20.896;2022-11-18T09:38:18;1.30;99.90
21189;DHT22;39071;52.420;20.896;2022-11-18T09:49:10;1.50;99.90
21189;DHT22;39071;52.420;20.896;2022-11-18T09:51:45;1.70;99.90
21189;DHT22;39071;52.420;20.896;2022-11-18T09:54:22;1.40;92.60
21189;DHT22;39071;52.420;20.896;2022-11-18T09:56:51;1.40;94.80
21189;DHT22;39071;52.420;20.896;2022-11-18T09:59:19;1.60;92.80
21189;DHT22;39071;52.420;20.896;2022-11-18T10:01:45;1.50;90.40
21189;DHT22;39071;52.420;20.896;2022-11-18T10:04:20;1.40;88.30
21189;DHT22;39071;52.420;20.896;2022-11-18T10:06:47;1.60;86.20
21189;DHT22;39071;52.420;20.896;2022-11-18T10:14:54;1.30;73.00
21189;DHT22;39071;52.420;20.896;2022-11-18T10:20:28;1.20;86.90
21189;DHT22;39071;52.420;20.896;2022-11-18T10:25:23;1.30;86.40
21189;DHT22;39071;52.420;20.896;2022-11-18T10:27:50;1.20;88.30
21189;DHT22;39071;52.420;20.896;2022-11-18T10:30:21;1.30;90.50
21189;DHT22;39071;52.420;20.896;2022-11-18T10:33:01;1.40;90.90
21189;DHT22;39071;52.420;20.896;2022-11-18T10:35:37;1.20;88.90
21189;DHT22;39071;52.420;20.896;2022-11-18T10:38:18;1.10;90.00
21189;DHT22;39071;52.420;20.896;2022-11-18T10:41:01;1.10;93.30
21189;DHT22;39071;52.420;20.896;2022-11-18T10:43:51;1.10;94.80
21189;DHT22;39071;52.420;20.896;2022-11-18T10:51:47;1.10;96.20
21189;DHT22;39071;52.420;20.896;2022-11-18T10:54:17;1.30;99.90
21189;DHT22;39071;52.420;20.896;2022-11-18T10:56:55;1.30;99.10
21189;DHT22;39071;52.420;20.896;2022-11-18T10:59:30;1.30;97.00
21189;DHT22;39071;52.420;20.896;2022-11-18T11:04:35;1.20;94.50
21189;DHT22;39071;52.420;20.896;2022-11-18T11:07:14;1.20;93.20
21189;DHT22;39071;52.420;20.896;2022-11-18T11:09:40;1.20;93.30
21189;DHT22;39071;52.420;20.896;2022-11-18T11:12:16;2.00;92.50
21189;DHT22;39071;52.420;20.896;2022-11-18T11:14:56;1.20;90.90
21189;DHT22;39071;52.420;20.896;2022-11-18T11:17:35;1.40;92.40
21189;DHT22;39071;52.420;20.896;2022-11-18T11:22:29;1.20;91.50
21189;DHT22;39071;52.420;20.896;2022-11-18T11:24:55;1.20;94.60
21189;DHT22;39071;52.420;20.896;2022-11-18T11:27:48;2.00;95.80
21189;DHT22;39071;52.420;20.896;2022-11-18T11:30:20;1.20;96.60
21189;DHT22;39071;52.420;20.896;2022-11-18T11:32:52;1.10;99.90
21189;DHT22;39071;52.420;20.896;2022-11-18T11:35:33;1.10;99.90
21189;DHT22;39071;52.420;20.896;2022-11-18T11:40:53;0.90;99.90
21189;DHT22;39071;52.420;20.896;2022-11-18T11:43:49;0.70;99.90
21189;DHT22;39071;52.420;20.896;2022-11-18T11:49:26;0.80;99.90
21189;DHT22;39071;52.420;20.896;2022-11-18T11:51:57;1.00;99.90
21189;DHT22;39071;52.420;20.896;2022-11-18T11:54:54;1.00;99.90
21189;DHT22;39071;52.420;20.896;2022-11-18T12:00:10;1.20;99.90
21189;DHT22;39071;52.420;20.896;2022-11-18T12:05:37;1.30;99.90
21189;DHT22;39071;52.420;20.896;2022-11-18T12:08:11;1.50;99.90
21189;DHT22;39071;52.420;20.896;2022-11-18T12:16:57;1.90;99.90
21189;DHT22;39071;52.420;20.896;2022-11-18T12:19:25;3.20;99.90
21189;DHT22;39071;52.420;20.896;2022-11-18T12:21:53;1.90;99.90
21189;DHT22;39071;52.420;20.896;2022-11-18T12:26:56;1.90;99.90
21189;DHT22;39071;52.420;20.896;2022-11-18T12:29:25;1.80;99.90
21189;DHT22;39071;52.420;20.896;2022-11-18T12:31:59;1.70;99.90
21189;DHT22;39071;52.420;20.896;2022-11-18T12:34:38;1.60;99.90
21189;DHT22;39071;52.420;20.896;2022-11-18T12:42:44;1.20;99.90
21189;DHT22;39071;52.420;20.896;2022-11-18T12:48:25;1.20;99.90
21189;DHT22;39071;52.420;20.896;2022-11-18T12:50:53;1.00;99.90
21189;DHT22;39071;52.420;20.896;2022-11-18T12:53:39;1.40;99.90
21189;DHT22;39071;52.420;20.896;2022-11-18T12:56:21;0.90;99.90
21189;DHT22;39071;52.420;20.896;2022-11-18T12:58:58;1.00;99.90
21189;DHT22;39071;52.420;20.896;2022-11-18T13:03:52;1.00;99.90
21189;DHT22;39071;52.420;20.896;2022-11-18T13:06:30;1.00;99.90
21189;DHT22;39071;52.420;20.896;2022-11-18T13:09:01;1.10;99.90
21189;DHT22;39071;52.420;20.896;2022-11-18T13:11:30;1.20;99.90
21189;DHT22;39071;52.420;20.896;2022-11-18T13:14:26;1.10;99.90
21189;DHT22;39071;52.420;20.896;2022-11-18T13:17:38;1.10;99.90
21189;DHT22;39071;52.420;20.896;2022-11-18T13:20:24;1.20;99.90
21189;DHT22;39071;52.420;20.896;2022-11-18T13:23:04;1.30;99.90
21189;DHT22;39071;52.420;20.896;2022-11-18T13:25:49;1.30;99.90
21189;DHT22;39071;52.420;20.896;2022-11-18T13:31:04;1.30;99.90
21189;DHT22;39071;52.420;20.896;2022-11-18T13:33:36;1.50;99.90
21189;DHT22;39071;52.420;20.896;2022-11-18T13:36:02;1.40;99.90
21189;DHT22;39071;52.420;20.896;2022-11-18T13:38:37;1.30;99.90
21189;DHT22;39071;52.420;20.896;2022-11-18T13:41:13;1.20;99.90
21189;DHT22;39071;52.420;20.896;2022-11-18T13:43:46;1.00;99.90
21189;DHT22;39071;52.420;20.896;2022-11-18T13:46:16;1.00;99.90
21189;DHT22;39071;52.420;20.896;2022-11-18T13:48:55;1.10;99.90
21189;DHT22;39071;52.420;20.896;2022-11-18T13:51:22;1.00;99.90
21189;DHT22;39071;52.420;20.896;2022-11-18T13:53:48;1.00;99.90
21189;DHT22;39071;52.420;20.896;2022-11-18T13:56:25;1.00;99.90
21189;DHT22;39071;52.420;20.896;2022-11-18T13:58:54;0.90;99.90
21189;DHT22;39071;52.420;20.896;2022-11-18T14:01:27;0.90;99.90
21189;DHT22;39071;52.420;20.896;2022-11-18T14:04:01;1.30;99.90
21189;DHT22;39071;52.420;20.896;2022-11-18T14:06:32;0.90;99.90
21189;DHT22;39071;52.420;20.896;2022-11-18T14:12:03;0.90;99.90
21189;DHT22;39071;52.420;20.896;2022-11-18T14:14:39;0.90;99.90
21189;DHT22;39071;52.420;20.896;2022-11-18T14:17:17;0.70;99.90
21189;DHT22;39071;52.420;20.896;2022-11-18T14:19:43;0.70;99.90
21189;DHT22;39071;52.420;20.896;2022-11-18T14:22:19;0.70;99.90
21189;DHT22;39071;52.420;20.896;2022-11-18T14:30:34;0.80;99.90
21189;DHT22;39071;52.420;20.896;2022-11-18T14:36:00;0.70;99.90
21189;DHT22;39071;52.420;20.896;2022-11-18T14:41:08;2.10;99.90
21189;DHT22;39071;52.420;20.896;2022-11-18T14:43:34;0.40;1.00
21189;DHT22;39071;52.420;20.896;2022-11-18T14:46:25;0.40;1.00
21189;DHT22;39071;52.420;20.896;2022-11-18T14:48:50;0.30;1.00
21189;DHT22;39071;52.420;20.896;2022-11-18T14:51:16;0.20;99.90
21189;DHT22;39071;52.420;20.896;2022-11-18T14:53:42;0.10;99.90
21189;DHT22;39071;52.420;20.896;2022-11-18T14:56:16;0.00;99.90
21189;DHT22;39071;52.420;20.896;2022-11-18T14:58:44;0.30;1.00
21189;DHT22;39071;52.420;20.896;2022-11-18T15:01:11;0.20;99.90
21189;DHT22;39071;52.420;20.896;2022-11-18T15:03:37;-0.10;99.90
21189;DHT22;39071;52.420;20.896;2022-11-18T15:06:05;-0.10;99.90
21189;DHT22;39071;52.420;20.896;2022-11-18T15:08:31;-0.10;99.90
21189;DHT22;39071;52.420;20.896;2022-11-18T15:10:56;-0.10;99.90
21189;DHT22;39071;52.420;20.896;2022-11-18T15:13:22;-0.20;99.90
21189;DHT22;39071;52.420;20.896;2022-11-18T15:15:47;-0.20;99.90
21189;DHT22;39071;52.420;20.896;2022-11-18T15:18:13;-0.20;99.90
21189;DHT22;39071;52.420;20.896;2022-11-18T15:20:39;-0.20;99.90
21189;DHT22;39071;52.420;20.896;2022-11-18T15:23:04;-0.30;99.90
21189;DHT22;39071;52.420;20.896;2022-11-18T15:25:30;-0.20;99.90
21189;DHT22;39071;52.420;20.896;2022-11-18T15:27:56;-0.20;99.90
21189;DHT22;39071;52.420;20.896;2022-11-18T15:30:21;-0.30;99.90
21189;DHT22;39071;52.420;20.896;2022-11-18T15:32:48;-0.30;99.90
21189;DHT22;39071;52.420;20.896;2022-11-18T15:35:14;-0.30;99.90
21189;DHT22;39071;52.420;20.896;2022-11-18T15:37:41;-0.40;99.90
21189;DHT22;39071;52.420;20.896;2022-11-18T15:40:07;-0.30;99.90
21189;DHT22;39071;52.420;20.896;2022-11-18T15:42:32;-0.50;99.90
21189;DHT22;39071;52.420;20.896;2022-11-18T15:44:58;-0.60;99.90
21189;DHT22;39071;52.420;20.896;2022-11-18T15:47:24;-0.50;99.90
21189;DHT22;39071;52.420;20.896;2022-11-18T15:49:49;-0.50;99.90
21189;DHT22;39071;52.420;20.896;2022-11-18T15:52:15;-0.50;99.90
21189;DHT22;39071;52.420;20.896;2022-11-18T15:54:41;-0.50;99.90
21189;DHT22;39071;52.420;20.896;2022-11-18T15:57:07;-0.50;99.90
21189;DHT22;39071;52.420;20.896;2022-11-18T15:59:32;-0.60;99.90
21189;DHT22;39071;52.420;20.896;2022-11-18T16:01:58;-0.60;99.90
21189;DHT22;39071;52.420;20.896;2022-11-18T16:04:24;-0.50;99.90
21189;DHT22;39071;52.420;20.896;2022-11-18T16:06:50;-0.60;99.90
21189;DHT22;39071;52.420;20.896;2022-11-18T16:09:16;-0.60;99.90
21189;DHT22;39071;52.420;20.896;2022-11-18T16:11:42;-0.60;99.90
21189;DHT22;39071;52.420;20.896;2022-11-18T16:14:26;-0.60;99.90
21189;DHT22;39071;52.420;20.896;2022-11-18T16:16:54;-0.60;99.90
21189;DHT22;39071;52.420;20.896;2022-11-18T16:19:22;-0.50;99.90
21189;DHT22;39071;52.420;20.896;2022-11-18T16:21:51;-0.50;99.90
21189;DHT22;39071;52.420;20.896;2022-11-18T16:24:21;-0.50;99.90
21189;DHT22;39071;52.420;20.896;2022-11-18T16:26:48;-0.60;99.90
21189;DHT22;39071;52.420;20.896;2022-11-18T16:29:14;-0.60;99.90
21189;DHT22;39071;52.420;20.896;2022-11-18T16:31:42;-0.50;99.90
21189;DHT22;39071;52.420;20.896;2022-11-18T16:34:20;-0.30;99.90
21189;DHT22;39071;52.420;20.896;2022-11-18T16:36:54;-0.60;99.90
21189;DHT22;39071;52.420;20.896;2022-11-18T16:39:21;-0.50;99.90
21189;DHT22;39071;52.420;20.896;2022-11-18T16:41:50;-0.60;99.90
21189;DHT22;39071;52.420;20.896;2022-11-18T16:44:16;-0.60;99.90
21189;DHT22;39071;52.420;20.896;2022-11-18T16:46:51;-0.60;99.90
21189;DHT22;39071;52.420;20.896;2022-11-18T16:49:18;-0.60;99.90
21189;DHT22;39071;52.420;20.896;2022-11-18T16:51:46;-0.60;99.90
21189;DHT22;39071;52.420;20.896;2022-11-18T16:54:16;-0.50;99.90
21189;DHT22;39071;52.420;20.896;2022-11-18T16:56:46;-0.60;99.90
21189;DHT22;39071;52.420;20.896;2022-11-18T16:59:17;-0.40;99.90
21189;DHT22;39071;52.420;20.896;2022-11-18T17:01:43;-0.50;99.90
21189;DHT22;39071;52.420;20.896;2022-11-18T17:04:09;-0.50;99.90
21189;DHT22;39071;52.420;20.896;2022-11-18T17:06:39;-0.60;99.90
21189;DHT22;39071;52.420;20.896;2022-11-18T17:09:06;-0.60;99.90
21189;DHT22;39071;52.420;20.896;2022-11-18T17:11:32;-0.70;99.90
21189;DHT22;39071;52.420;20.896;2022-11-18T17:13:57;-0.70;99.90
21189;DHT22;39071;52.420;20.896;2022-11-18T17:16:24;-0.70;99.90
21189;DHT22;39071;52.420;20.896;2022-11-18T17:18:57;-0.60;99.90
21189;DHT22;39071;52.420;20.896;2022-11-18T17:21:25;-0.60;99.90
21189;DHT22;39071;52.420;20.896;2022-11-18T17:23:51;-0.60;99.90
21189;DHT22;39071;52.420;20.896;2022-11-18T17:26:20;-0.70;99.90
21189;DHT22;39071;52.420;20.896;2022-11-18T17:28:47;-0.70;99.90